createdAt,value
2018-05-29T00:00:54.548Z,74.68
2018-05-29T00:01:54.545Z,74.87
2018-05-29T00:02:54.549Z,75.02
2018-05-29T00:03:54.546Z,74.83
2018-05-29T00:04:54.546Z,74.77
2018-05-29T00:05:54.542Z,74.64
2018-05-29T00:06:54.540Z,74.83
2018-05-29T00:07:54.538Z,75.02
2018-05-29T00:08:54.535Z,75.70
2018-05-29T00:09:54.539Z,75.12
2018-05-29T00:10:54.537Z,75.79
2018-05-29T00:11:54.531Z,75.22
2018-05-29T00:12:54.537Z,75.79
2018-05-29T00:13:54.532Z,75.22
2018-05-29T00:14:54.525Z,75.60
2018-05-29T00:15:54.542Z,75.99
2018-05-29T00:16:54.548Z,75.70
2018-05-29T00:17:54.530Z,75.70
2018-05-29T00:18:54.534Z,75.79
2018-05-29T00:19:54.534Z,75.70
2018-05-29T00:20:54.539Z,76.09
2018-05-29T00:21:54.541Z,75.41
2018-05-29T00:22:54.508Z,76.57
2018-05-29T00:23:54.545Z,75.79
2018-05-29T00:24:54.509Z,75.99
2018-05-29T00:25:54.531Z,76.18
2018-05-29T00:26:54.504Z,75.99
2018-05-29T00:27:54.501Z,75.89
2018-05-29T00:28:54.499Z,76.24
2018-05-29T00:29:54.495Z,76.28
2018-05-29T00:30:54.515Z,76.82
2018-05-29T00:31:54.498Z,76.43
2018-05-29T00:32:54.491Z,76.24
2018-05-29T00:33:54.489Z,76.15
2018-05-29T00:34:54.489Z,76.53
2018-05-29T00:35:54.489Z,76.24
2018-05-29T00:36:54.490Z,76.53
2018-05-29T00:37:54.489Z,76.43
2018-05-29T00:38:54.479Z,76.72
2018-05-29T00:39:54.477Z,76.72
2018-05-29T00:40:54.478Z,76.53
2018-05-29T00:41:54.475Z,76.53
2018-05-29T00:42:54.477Z,77.01
2018-05-29T00:43:54.470Z,76.63
2018-05-29T00:44:54.469Z,76.63
2018-05-29T00:45:54.467Z,76.43
2018-05-29T00:46:54.468Z,76.92
2018-05-29T00:47:54.466Z,76.34
2018-05-29T00:48:54.464Z,76.82
2018-05-29T00:49:54.456Z,76.92
2018-05-29T00:50:54.455Z,76.82
2018-05-29T00:51:54.453Z,77.01
2018-05-29T00:52:54.455Z,76.82
2018-05-29T00:53:54.456Z,77.30
2018-05-29T00:54:54.449Z,76.63
2018-05-29T00:55:54.445Z,76.82
2018-05-29T00:56:54.443Z,77.50
2018-05-29T00:57:54.439Z,77.11
2018-05-29T00:58:54.437Z,76.63
2018-05-29T00:59:54.439Z,77.40
2018-05-29T01:00:54.434Z,77.69
2018-05-29T01:01:54.435Z,77.40
2018-05-29T01:02:54.431Z,77.40
2018-05-29T01:03:54.427Z,77.30
2018-05-29T01:04:54.428Z,77.11
2018-05-29T01:05:54.425Z,77.88
2018-05-29T01:06:54.425Z,77.40
2018-05-29T01:07:54.421Z,77.40
2018-05-29T01:08:54.420Z,77.30
2018-05-29T01:09:54.412Z,77.40
2018-05-29T01:10:54.417Z,77.30
2018-05-29T01:11:54.409Z,77.21
2018-05-29T01:12:54.410Z,77.21
2018-05-29T01:13:54.409Z,78.66
2018-05-29T01:14:54.404Z,77.40
2018-05-29T01:15:54.411Z,77.59
2018-05-29T01:16:54.400Z,77.69
2018-05-29T01:17:54.397Z,77.40
2018-05-29T01:18:54.398Z,77.69
2018-05-29T01:19:54.398Z,77.78
2018-05-29T01:20:54.396Z,78.08
2018-05-29T01:21:54.393Z,77.69
2018-05-29T01:22:54.387Z,77.50
2018-05-29T01:23:54.384Z,78.56
2018-05-29T01:24:54.418Z,77.11
2018-05-29T01:25:54.405Z,77.59
2018-05-29T01:26:54.380Z,77.50
2018-05-29T01:27:54.382Z,78.42
2018-05-29T01:28:54.375Z,76.82
2018-05-29T01:29:54.377Z,77.30
2018-05-29T01:30:54.379Z,77.69
2018-05-29T01:31:54.371Z,77.98
2018-05-29T01:32:54.365Z,77.69
2018-05-29T01:33:54.369Z,77.30
2018-05-29T01:34:54.365Z,77.50
2018-05-29T01:35:54.363Z,77.78
2018-05-29T01:36:54.361Z,77.30
2018-05-29T01:37:54.354Z,77.65
2018-05-29T01:38:54.355Z,77.94
2018-05-29T01:39:54.351Z,79.68
2018-05-29T01:40:54.351Z,77.69
2018-05-29T01:41:54.347Z,77.55
2018-05-29T01:42:54.349Z,78.03
2018-05-29T01:43:54.343Z,77.46
2018-05-29T01:44:54.345Z,77.36
2018-05-29T01:45:54.336Z,77.78
2018-05-29T01:46:54.335Z,77.65
2018-05-29T01:47:54.339Z,77.07
2018-05-29T01:48:54.333Z,79.00
2018-05-29T01:49:54.330Z,77.55
2018-05-29T01:50:54.325Z,77.75
2018-05-29T01:51:54.323Z,77.55
2018-05-29T01:52:54.323Z,77.36
2018-05-29T01:53:54.320Z,77.36
2018-05-29T01:54:54.317Z,77.36
2018-05-29T01:55:54.319Z,76.88
2018-05-29T01:56:54.317Z,76.88
2018-05-29T01:57:54.312Z,77.26
2018-05-29T01:58:54.317Z,76.93
2018-05-29T01:59:54.305Z,76.78
2018-05-29T02:00:54.313Z,78.19
2018-05-29T02:01:54.301Z,77.23
2018-05-29T02:02:54.302Z,77.51
2018-05-29T02:03:54.299Z,77.33
2018-05-29T02:04:54.314Z,77.33
2018-05-29T02:05:54.293Z,77.90
2018-05-29T02:06:54.294Z,78.67
2018-05-29T02:07:54.290Z,78.81
2018-05-29T02:08:54.289Z,77.61
2018-05-29T02:09:54.287Z,77.51
2018-05-29T02:10:54.300Z,78.19
2018-05-29T02:11:54.280Z,80.79
2018-05-29T02:12:54.276Z,78.09
2018-05-29T02:13:54.275Z,78.58
2018-05-29T02:14:54.271Z,77.90
2018-05-29T02:15:54.274Z,79.54
2018-05-29T02:16:54.272Z,78.38
2018-05-29T02:17:54.267Z,78.03
2018-05-29T02:18:54.266Z,77.61
2018-05-29T02:19:54.259Z,78.09
2018-05-29T02:20:54.256Z,77.33
2018-05-29T02:21:54.255Z,78.52
2018-05-29T02:22:54.252Z,78.33
2018-05-29T02:23:54.254Z,77.51
2018-05-29T02:24:54.252Z,80.06
2018-05-29T02:25:54.245Z,78.00
2018-05-29T02:26:54.245Z,78.19
2018-05-29T02:27:54.245Z,77.42
2018-05-29T02:28:54.239Z,78.29
2018-05-29T02:29:54.239Z,77.33
2018-05-29T02:30:54.236Z,78.19
2018-05-29T02:31:54.237Z,77.61
2018-05-29T02:32:54.261Z,79.06
2018-05-29T02:33:54.225Z,77.90
2018-05-29T02:34:54.224Z,78.48
2018-05-29T02:35:54.221Z,78.58
2018-05-29T02:36:54.224Z,78.58
2018-05-29T02:37:54.223Z,79.06
2018-05-29T02:38:54.219Z,78.38
2018-05-29T02:39:54.218Z,78.77
2018-05-29T02:40:54.212Z,77.13
2018-05-29T02:41:54.208Z,78.58
2018-05-29T02:42:54.207Z,78.48
2018-05-29T02:43:54.212Z,77.71
2018-05-29T02:44:54.201Z,77.81
2018-05-29T02:45:54.200Z,78.86
2018-05-29T02:46:54.199Z,78.86
2018-05-29T02:47:54.197Z,78.96
2018-05-29T02:48:54.204Z,79.06
2018-05-29T02:49:54.187Z,78.58
2018-05-29T02:50:54.189Z,78.48
2018-05-29T02:51:54.188Z,78.58
2018-05-29T02:52:54.187Z,79.06
2018-05-29T02:53:54.180Z,78.77
2018-05-29T02:54:54.174Z,79.35
2018-05-29T02:55:54.172Z,79.44
2018-05-29T02:56:54.172Z,78.58
2018-05-29T02:57:54.176Z,81.85
2018-05-29T02:58:54.168Z,78.77
2018-05-29T02:59:54.169Z,78.48
2018-05-29T03:00:54.161Z,80.02
2018-05-29T03:01:54.157Z,77.90
2018-05-29T03:02:54.154Z,78.29
2018-05-29T03:03:54.155Z,81.47
2018-05-29T03:04:54.153Z,79.83
2018-05-29T03:05:54.150Z,78.48
2018-05-29T03:06:54.146Z,78.00
2018-05-29T03:07:54.145Z,78.38
2018-05-29T03:08:54.140Z,78.77
2018-05-29T03:09:54.141Z,78.67
2018-05-29T03:10:54.134Z,77.61
2018-05-29T03:11:54.136Z,77.81
2018-05-29T03:12:54.133Z,77.09
2018-05-29T03:13:54.130Z,77.90
2018-05-29T03:14:54.128Z,76.90
2018-05-29T03:15:54.120Z,78.06
2018-05-29T03:16:54.120Z,77.76
2018-05-29T03:17:54.124Z,77.48
2018-05-29T03:18:54.118Z,77.86
2018-05-29T03:19:54.116Z,76.32
2018-05-29T03:20:54.148Z,79.11
2018-05-29T03:21:54.107Z,79.11
2018-05-29T03:22:54.103Z,77.19
2018-05-29T03:23:54.105Z,80.56
2018-05-29T03:24:54.099Z,76.32
2018-05-29T03:25:54.099Z,76.80
2018-05-29T03:26:54.099Z,77.28
2018-05-29T03:27:54.090Z,76.61
2018-05-29T03:28:54.095Z,76.80
2018-05-29T03:29:54.085Z,77.00
2018-05-29T03:30:54.084Z,76.61
2018-05-29T03:31:54.081Z,76.61
2018-05-29T03:32:54.085Z,76.90
2018-05-29T03:33:54.081Z,76.71
2018-05-29T03:34:54.078Z,76.71
2018-05-29T03:35:54.069Z,76.71
2018-05-29T03:36:54.069Z,77.00
2018-05-29T03:37:54.066Z,76.51
2018-05-29T03:38:54.064Z,78.34
2018-05-29T03:39:54.067Z,78.15
2018-05-29T03:40:54.060Z,76.23
2018-05-29T03:41:54.057Z,76.90
2018-05-29T03:42:54.059Z,76.51
2018-05-29T03:43:54.057Z,76.51
2018-05-29T03:44:54.057Z,76.51
2018-05-29T03:45:54.043Z,76.28
2018-05-29T03:46:54.052Z,76.61
2018-05-29T03:47:54.040Z,75.90
2018-05-29T03:48:54.042Z,76.48
2018-05-29T03:49:54.048Z,76.57
2018-05-29T03:50:54.039Z,76.67
2018-05-29T03:51:54.037Z,75.90
2018-05-29T03:52:54.029Z,76.23
2018-05-29T03:53:54.029Z,76.03
2018-05-29T03:54:54.040Z,75.99
2018-05-29T03:55:54.024Z,76.32
2018-05-29T03:56:54.019Z,75.90
2018-05-29T03:57:54.016Z,76.48
2018-05-29T03:58:54.012Z,75.90
2018-05-29T03:59:54.011Z,76.96
2018-05-29T04:00:54.007Z,76.38
2018-05-29T04:01:54.008Z,76.32
2018-05-29T04:02:54.004Z,76.03
2018-05-29T04:03:54.004Z,76.42
2018-05-29T04:04:53.996Z,76.03
2018-05-29T04:05:53.994Z,79.31
2018-05-29T04:06:53.990Z,76.61
2018-05-29T04:07:53.988Z,76.61
2018-05-29T04:08:53.989Z,76.32
2018-05-29T04:09:53.998Z,76.61
2018-05-29T04:10:53.984Z,76.03
2018-05-29T04:11:53.986Z,76.51
2018-05-29T04:12:53.975Z,77.19
2018-05-29T04:13:53.982Z,76.80
2018-05-29T04:14:53.974Z,77.48
2018-05-29T04:15:54.055Z,77.09
2018-05-29T04:16:53.996Z,76.51
2018-05-29T04:17:53.963Z,77.38
2018-05-29T04:18:53.958Z,77.38
2018-05-29T04:19:53.958Z,77.58
2018-05-29T04:20:53.962Z,76.71
2018-05-29T04:21:53.970Z,76.90
2018-05-29T04:22:53.954Z,77.86
2018-05-29T04:23:53.954Z,77.76
2018-05-29T04:24:53.954Z,77.67
2018-05-29T04:25:53.944Z,77.38
2018-05-29T04:26:53.942Z,77.19
2018-05-29T04:27:53.939Z,77.48
2018-05-29T04:28:53.942Z,76.80
2018-05-29T04:29:53.936Z,77.19
2018-05-29T04:30:53.932Z,77.96
2018-05-29T04:31:53.933Z,77.48
2018-05-29T04:32:53.928Z,77.48
2018-05-29T04:33:53.923Z,77.19
2018-05-29T04:34:53.922Z,77.28
2018-05-29T04:35:53.921Z,77.09
2018-05-29T04:36:53.917Z,77.28
2018-05-29T04:37:53.916Z,77.38
2018-05-29T04:38:53.912Z,77.38
2018-05-29T04:39:53.911Z,77.48
2018-05-29T04:40:53.907Z,77.48
2018-05-29T04:41:53.923Z,77.09
2018-05-29T04:42:53.903Z,77.51
2018-05-29T04:43:53.900Z,77.67
2018-05-29T04:44:53.899Z,77.38
2018-05-29T04:45:53.895Z,77.76
2018-05-29T04:46:53.891Z,78.38
2018-05-29T04:47:53.893Z,77.81
2018-05-29T04:48:53.891Z,78.38
2018-05-29T04:49:53.888Z,78.19
2018-05-29T04:50:53.882Z,78.29
2018-05-29T04:51:53.894Z,78.77
2018-05-29T04:52:53.881Z,79.06
2018-05-29T04:53:53.879Z,79.44
2018-05-29T04:54:53.875Z,79.49
2018-05-29T04:55:53.873Z,79.68
2018-05-29T04:56:53.868Z,80.16
2018-05-29T04:57:53.867Z,79.77
2018-05-29T04:58:53.863Z,80.06
2018-05-29T04:59:53.862Z,79.77
2018-05-29T05:00:53.856Z,79.87
2018-05-29T05:01:53.859Z,79.97
2018-05-29T05:02:53.853Z,80.64
2018-05-29T05:03:53.867Z,80.54
2018-05-29T05:04:53.852Z,80.54
2018-05-29T05:05:53.881Z,81.12
2018-05-29T05:06:53.848Z,80.49
2018-05-29T05:07:53.871Z,80.54
2018-05-29T05:08:53.841Z,80.16
2018-05-29T05:09:53.833Z,80.26
2018-05-29T05:10:53.837Z,80.00
2018-05-29T05:11:53.833Z,80.78
2018-05-29T05:12:53.834Z,80.30
2018-05-29T05:13:53.828Z,81.16
2018-05-29T05:14:53.827Z,80.39
2018-05-29T05:15:53.822Z,81.45
2018-05-29T05:16:53.821Z,80.30
2018-05-29T05:17:53.823Z,80.87
2018-05-29T05:18:53.819Z,80.68
2018-05-29T05:19:53.841Z,80.78
2018-05-29T05:20:53.817Z,80.97
2018-05-29T05:21:53.813Z,81.16
2018-05-29T05:22:53.812Z,80.39
2018-05-29T05:23:53.814Z,80.87
2018-05-29T05:24:53.808Z,80.78
2018-05-29T05:25:53.807Z,80.58
2018-05-29T05:26:53.803Z,81.01
2018-05-29T05:27:53.811Z,81.11
2018-05-29T05:28:53.804Z,80.82
2018-05-29T05:29:53.802Z,81.01
2018-05-29T05:30:53.801Z,80.53
2018-05-29T05:31:53.808Z,81.40
2018-05-29T05:32:53.801Z,82.07
2018-05-29T05:33:53.796Z,81.78
2018-05-29T05:34:53.806Z,81.15
2018-05-29T05:35:53.806Z,80.82
2018-05-29T05:36:53.791Z,81.05
2018-05-29T05:37:53.789Z,81.15
2018-05-29T05:38:53.792Z,80.95
2018-05-29T05:39:53.793Z,81.15
2018-05-29T05:40:53.796Z,80.86
2018-05-29T05:41:53.811Z,80.66
2018-05-29T05:42:53.799Z,80.80
2018-05-29T05:43:53.788Z,80.12
2018-05-29T05:44:53.795Z,80.32
2018-05-29T05:45:53.796Z,80.22
2018-05-29T05:46:53.808Z,80.41
2018-05-29T05:47:53.789Z,80.12
2018-05-29T05:48:53.793Z,79.87
2018-05-29T05:49:53.790Z,79.68
2018-05-29T05:50:53.859Z,79.10
2018-05-29T05:51:53.787Z,79.39
2018-05-29T05:52:53.787Z,79.68
2018-05-29T05:53:53.791Z,79.87
2018-05-29T05:54:53.791Z,79.49
2018-05-29T05:55:53.792Z,79.24
2018-05-29T05:56:53.799Z,79.14
2018-05-29T05:57:53.804Z,77.69
2018-05-29T05:58:53.810Z,77.98
2018-05-29T05:59:53.803Z,77.40
2018-05-29T06:00:53.798Z,77.20
2018-05-29T06:01:53.808Z,78.17
2018-05-29T06:02:53.820Z,77.40
2018-05-29T06:03:53.823Z,77.69
2018-05-29T06:04:53.802Z,76.91
2018-05-29T06:05:53.807Z,77.14
2018-05-29T06:06:53.816Z,77.63
2018-05-29T06:07:53.803Z,77.05
2018-05-29T06:08:53.813Z,77.05
2018-05-29T06:09:53.806Z,75.83
2018-05-29T06:10:53.807Z,76.02
2018-05-29T06:11:53.813Z,76.12
2018-05-29T06:12:53.820Z,75.54
2018-05-29T06:13:53.818Z,75.63
2018-05-29T06:14:53.824Z,75.19
2018-05-29T06:15:53.820Z,74.60
2018-05-29T06:16:53.824Z,74.26
2018-05-29T06:17:53.830Z,74.54
2018-05-29T06:18:53.832Z,72.93
2018-05-29T06:19:53.829Z,73.42
2018-05-29T06:20:53.840Z,71.96
2018-05-29T06:21:53.834Z,71.90
2018-05-29T06:22:53.837Z,70.06
2018-05-29T06:23:53.851Z,70.06
2018-05-29T06:24:53.842Z,71.12
2018-05-29T06:25:53.842Z,69.57
2018-05-29T06:26:53.848Z,72.87
2018-05-29T06:27:53.852Z,70.80
2018-05-29T06:28:53.870Z,70.93
2018-05-29T06:29:53.858Z,70.64
2018-05-29T06:30:53.860Z,75.49
2018-05-29T06:31:53.867Z,75.88
2018-05-29T06:32:53.866Z,73.55
2018-05-29T06:33:53.871Z,71.45
2018-05-29T06:34:53.871Z,69.02
2018-05-29T06:35:53.876Z,68.54
2018-05-29T06:36:53.879Z,68.73
2018-05-29T06:37:53.886Z,70.77
2018-05-29T06:38:53.884Z,70.09
2018-05-29T06:39:53.891Z,70.12
2018-05-29T06:40:53.891Z,67.21
2018-05-29T06:41:53.896Z,68.32
2018-05-29T06:42:53.907Z,67.24
2018-05-29T06:43:53.911Z,65.98
2018-05-29T06:44:53.983Z,65.98
2018-05-29T06:45:53.913Z,65.63
2018-05-29T06:46:53.917Z,65.63
2018-05-29T06:47:53.947Z,64.95
2018-05-29T06:48:53.936Z,65.37
2018-05-29T06:49:53.933Z,66.83
2018-05-29T06:50:53.941Z,66.83
2018-05-29T06:51:53.938Z,64.81
2018-05-29T06:52:53.943Z,62.48
2018-05-29T06:53:53.954Z,62.77
2018-05-29T06:54:53.963Z,61.41
2018-05-29T06:55:53.964Z,60.82
2018-05-29T06:56:53.964Z,60.92
2018-05-29T06:57:53.970Z,60.60
2018-05-29T06:58:53.976Z,61.28
2018-05-29T06:59:53.981Z,62.74
2018-05-29T07:00:53.986Z,63.71
2018-05-29T07:01:53.989Z,64.13
2018-05-29T07:02:53.996Z,61.60
2018-05-29T07:03:54.063Z,60.63
2018-05-29T07:04:54.010Z,62.09
2018-05-29T07:05:54.037Z,61.15
2018-05-29T07:06:54.022Z,61.73
2018-05-29T07:07:54.021Z,60.59
2018-05-29T07:08:54.034Z,58.64
2018-05-29T07:09:54.031Z,58.45
2018-05-29T07:10:54.047Z,58.61
2018-05-29T07:11:54.047Z,58.71
2018-05-29T07:12:54.049Z,58.91
2018-05-29T07:13:54.058Z,58.97
2018-05-29T07:14:54.066Z,58.78
2018-05-29T07:15:54.067Z,58.29
2018-05-29T07:16:54.077Z,58.29
2018-05-29T07:17:54.083Z,58.97
2018-05-29T07:18:54.090Z,59.07
2018-05-29T07:19:54.099Z,58.29
2018-05-29T07:20:54.099Z,58.20
2018-05-29T07:21:54.106Z,59.33
2018-05-29T07:22:54.109Z,58.87
2018-05-29T07:23:54.116Z,59.75
2018-05-29T07:24:54.127Z,59.27
2018-05-29T07:25:54.131Z,59.46
2018-05-29T07:26:54.134Z,58.39
2018-05-29T07:27:54.143Z,60.17
2018-05-29T07:28:54.150Z,59.00
2018-05-29T07:29:54.159Z,57.18
2018-05-29T07:30:54.160Z,58.18
2018-05-29T07:31:54.178Z,58.77
2018-05-29T07:32:54.201Z,55.68
2018-05-29T07:33:54.179Z,56.65
2018-05-29T07:34:54.186Z,54.50
2018-05-29T07:35:54.190Z,55.16
2018-05-29T07:36:54.200Z,56.01
2018-05-29T07:37:54.207Z,56.99
2018-05-29T07:38:54.218Z,57.84
2018-05-29T07:39:54.220Z,57.76
2018-05-29T07:40:54.225Z,57.67
2018-05-29T07:41:54.231Z,58.64
2018-05-29T07:42:54.240Z,58.97
2018-05-29T07:43:54.248Z,57.21
2018-05-29T07:44:54.253Z,55.77
2018-05-29T07:45:54.258Z,56.20
2018-05-29T07:46:54.270Z,55.61
2018-05-29T07:47:54.278Z,53.39
2018-05-29T07:48:54.309Z,52.41
2018-05-29T07:49:54.289Z,52.29
2018-05-29T07:50:54.295Z,53.24
2018-05-29T07:51:54.309Z,54.99
2018-05-29T07:52:54.313Z,54.02
2018-05-29T07:53:54.316Z,54.90
2018-05-29T07:54:54.325Z,54.53
2018-05-29T07:55:54.330Z,53.46
2018-05-29T07:56:54.338Z,52.39
2018-05-29T07:57:54.346Z,54.11
2018-05-29T07:58:54.408Z,53.85
2018-05-29T07:59:54.359Z,53.17
2018-05-29T08:00:54.408Z,54.85
2018-05-29T08:01:54.398Z,53.00
2018-05-29T08:02:54.383Z,53.13
2018-05-29T08:03:54.410Z,52.15
2018-05-29T08:04:54.397Z,52.17
2018-05-29T08:05:54.417Z,54.13
2018-05-29T08:06:55.051Z,51.29
2018-05-29T08:07:54.425Z,51.22
2018-05-29T08:08:54.460Z,52.10
2018-05-29T08:09:54.439Z,50.66
2018-05-29T08:10:54.448Z,49.68
2018-05-29T08:11:54.456Z,49.58
2018-05-29T08:12:54.467Z,49.46
2018-05-29T08:13:54.476Z,49.55
2018-05-29T08:14:54.482Z,49.75
2018-05-29T08:15:54.484Z,49.92
2018-05-29T08:16:54.492Z,51.49
2018-05-29T08:17:54.500Z,49.82
2018-05-29T08:18:54.511Z,50.32
2018-05-29T08:19:54.526Z,50.42
2018-05-29T08:20:54.528Z,51.10
2018-05-29T08:21:54.533Z,50.90
2018-05-29T08:22:54.546Z,51.10
2018-05-29T08:23:54.549Z,51.22
2018-05-29T08:24:54.561Z,50.56
2018-05-29T08:25:54.572Z,50.49
2018-05-29T08:26:54.579Z,49.43
2018-05-29T08:27:54.586Z,47.99
2018-05-29T08:28:54.596Z,47.67
2018-05-29T08:29:54.604Z,48.19
2018-05-29T08:30:54.609Z,47.89
2018-05-29T08:31:54.625Z,47.77
2018-05-29T08:32:54.632Z,47.18
2018-05-29T08:33:54.642Z,48.36
2018-05-29T08:34:54.658Z,49.95
2018-05-29T08:35:54.661Z,48.77
2018-05-29T08:36:54.667Z,48.30
2018-05-29T08:37:54.670Z,48.01
2018-05-29T08:38:54.682Z,47.03
2018-05-29T08:39:54.695Z,47.03
2018-05-29T08:40:54.708Z,45.76
2018-05-29T08:41:54.713Z,45.73
2018-05-29T08:42:54.722Z,47.06
2018-05-29T08:43:54.728Z,48.31
2018-05-29T08:44:54.740Z,48.97
2018-05-29T08:45:54.747Z,49.68
2018-05-29T08:46:54.776Z,50.46
2018-05-29T08:47:54.767Z,49.21
2018-05-29T08:48:54.782Z,47.47
2018-05-29T08:49:54.787Z,48.87
2018-05-29T08:50:54.797Z,45.37
2018-05-29T08:51:54.804Z,45.34
2018-05-29T08:52:54.812Z,47.40
2018-05-29T08:53:54.825Z,47.81
2018-05-29T08:54:54.835Z,46.84
2018-05-29T08:55:54.845Z,44.90
2018-05-29T08:56:54.853Z,43.52
2018-05-29T08:57:54.861Z,44.88
2018-05-29T08:58:54.873Z,44.19
2018-05-29T08:59:54.886Z,44.83
2018-05-29T09:00:54.895Z,45.79
2018-05-29T09:01:54.904Z,46.47
2018-05-29T09:02:54.915Z,48.04
2018-05-29T09:03:54.966Z,47.85
2018-05-29T09:04:54.932Z,48.38
2018-05-29T09:05:54.941Z,47.30
2018-05-29T09:06:54.951Z,46.44
2018-05-29T09:07:54.965Z,46.27
2018-05-29T09:08:54.974Z,45.80
2018-05-29T09:09:54.982Z,44.94
2018-05-29T09:10:54.991Z,43.08
2018-05-29T09:11:55.048Z,43.57
2018-05-29T09:12:55.012Z,43.05
2018-05-29T09:13:55.031Z,43.35
2018-05-29T09:14:55.076Z,43.33
2018-05-29T09:15:55.043Z,44.31
2018-05-29T09:16:55.056Z,45.49
2018-05-29T09:17:55.061Z,45.80
2018-05-29T09:18:55.076Z,43.27
2018-05-29T09:19:55.088Z,43.57
2018-05-29T09:20:55.100Z,43.49
2018-05-29T09:21:55.105Z,41.61
2018-05-29T09:22:55.119Z,43.08
2018-05-29T09:23:55.128Z,41.98
2018-05-29T09:24:55.137Z,42.37
2018-05-29T09:25:55.159Z,43.66
2018-05-29T09:26:55.161Z,42.58
2018-05-29T09:27:55.171Z,42.02
2018-05-29T09:28:55.181Z,41.25
2018-05-29T09:29:55.218Z,39.88
2018-05-29T09:30:55.204Z,40.94
2018-05-29T09:31:55.245Z,40.64
2018-05-29T09:32:55.226Z,40.63
2018-05-29T09:33:55.236Z,39.62
2018-05-29T09:34:55.243Z,39.51
2018-05-29T09:35:55.260Z,40.58
2018-05-29T09:36:55.271Z,39.70
2018-05-29T09:37:55.282Z,39.61
2018-05-29T09:38:55.287Z,40.37
2018-05-29T09:39:55.302Z,40.27
2018-05-29T09:40:55.310Z,40.86
2018-05-29T09:41:55.325Z,41.45
2018-05-29T09:42:55.335Z,40.76
2018-05-29T09:43:55.344Z,41.15
2018-05-29T09:44:55.355Z,41.27
2018-05-29T09:45:55.441Z,40.90
2018-05-29T09:46:55.405Z,39.92
2018-05-29T09:47:55.385Z,39.25
2018-05-29T09:48:55.393Z,39.43
2018-05-29T09:49:55.407Z,39.51
2018-05-29T09:50:55.417Z,40.08
2018-05-29T09:51:55.429Z,41.13
2018-05-29T09:52:55.497Z,41.23
2018-05-29T09:53:55.448Z,41.21
2018-05-29T09:54:55.464Z,41.60
2018-05-29T09:55:55.471Z,41.23
2018-05-29T09:56:55.484Z,41.62
2018-05-29T09:57:55.494Z,41.64
2018-05-29T09:58:55.504Z,40.45
2018-05-29T09:59:55.510Z,41.15
2018-05-29T10:00:55.526Z,40.37
2018-05-29T10:01:55.533Z,40.27
2018-05-29T10:02:55.544Z,41.05
2018-05-29T10:03:55.560Z,40.27
2018-05-29T10:04:55.564Z,41.45
2018-05-29T10:05:55.573Z,41.35
2018-05-29T10:06:55.600Z,41.17
2018-05-29T10:07:55.598Z,41.27
2018-05-29T10:08:55.621Z,41.66
2018-05-29T10:09:55.612Z,40.80
2018-05-29T10:10:55.627Z,40.11
2018-05-29T10:11:55.633Z,40.90
2018-05-29T10:12:55.646Z,40.98
2018-05-29T10:13:55.659Z,41.27
2018-05-29T10:14:55.666Z,41.55
2018-05-29T10:15:55.677Z,41.72
2018-05-29T10:16:55.692Z,42.38
2018-05-29T10:17:55.695Z,42.99
2018-05-29T10:18:55.706Z,42.50
2018-05-29T10:19:55.714Z,42.33
2018-05-29T10:20:55.726Z,42.15
2018-05-29T10:21:55.740Z,41.88
2018-05-29T10:22:55.748Z,41.49
2018-05-29T10:23:55.765Z,41.27
2018-05-29T10:24:55.770Z,41.55
2018-05-29T10:25:55.787Z,42.31
2018-05-29T10:26:55.788Z,42.31
2018-05-29T10:27:55.798Z,42.41
2018-05-29T10:28:55.806Z,42.80
2018-05-29T10:29:55.815Z,43.09
2018-05-29T10:30:55.888Z,43.38
2018-05-29T10:31:55.849Z,42.99
2018-05-29T10:32:55.854Z,43.09
2018-05-29T10:33:55.855Z,43.02
2018-05-29T10:34:55.869Z,42.33
2018-05-29T10:35:55.876Z,43.12
2018-05-29T10:36:55.890Z,43.51
2018-05-29T10:37:55.894Z,41.74
2018-05-29T10:38:55.909Z,42.21
2018-05-29T10:39:55.925Z,43.29
2018-05-29T10:40:55.927Z,42.31
2018-05-29T10:41:55.935Z,43.21
2018-05-29T10:42:55.949Z,43.41
2018-05-29T10:43:55.958Z,41.76
2018-05-29T10:44:55.967Z,41.56
2018-05-29T10:45:55.981Z,42.05
2018-05-29T10:46:55.990Z,42.37
2018-05-29T10:47:55.996Z,41.98
2018-05-29T10:48:56.025Z,41.21
2018-05-29T10:49:56.017Z,40.72
2018-05-29T10:50:56.027Z,42.39
2018-05-29T10:51:56.039Z,41.45
2018-05-29T10:52:56.047Z,39.39
2018-05-29T10:53:56.062Z,39.78
2018-05-29T10:54:56.066Z,40.08
2018-05-29T10:55:56.081Z,40.39
2018-05-29T10:56:56.094Z,39.40
2018-05-29T10:57:56.103Z,39.21
2018-05-29T10:58:56.118Z,37.93
2018-05-29T10:59:56.151Z,38.40
2018-05-29T11:00:56.139Z,38.19
2018-05-29T11:01:56.148Z,39.27
2018-05-29T11:02:56.153Z,38.76
2018-05-29T11:03:56.173Z,39.70
2018-05-29T11:04:56.176Z,40.68
2018-05-29T11:05:56.183Z,40.39
2018-05-29T11:06:56.251Z,40.92
2018-05-29T11:07:56.207Z,39.37
2018-05-29T11:08:56.215Z,39.78
2018-05-29T11:09:56.230Z,37.93
2018-05-29T11:10:56.237Z,37.82
2018-05-29T11:11:56.256Z,38.03
2018-05-29T11:12:56.258Z,38.50
2018-05-29T11:13:56.273Z,39.54
2018-05-29T11:14:56.281Z,39.62
2018-05-29T11:15:56.291Z,41.19
2018-05-29T11:16:56.301Z,41.09
2018-05-29T11:17:56.316Z,41.29
2018-05-29T11:18:56.329Z,40.41
2018-05-29T11:19:56.335Z,40.72
2018-05-29T11:20:56.350Z,40.35
2018-05-29T11:21:56.360Z,40.37
2018-05-29T11:22:56.366Z,39.29
2018-05-29T11:23:56.378Z,39.60
2018-05-29T11:24:56.391Z,38.54
2018-05-29T11:25:56.405Z,38.64
2018-05-29T11:26:56.423Z,37.82
2018-05-29T11:27:56.419Z,39.17
2018-05-29T11:28:56.433Z,39.35
2018-05-29T11:29:56.443Z,39.53
2018-05-29T11:30:56.457Z,39.92
2018-05-29T11:31:56.467Z,40.68
2018-05-29T11:32:56.475Z,41.35
2018-05-29T11:33:56.492Z,41.94
2018-05-29T11:34:56.499Z,41.94
2018-05-29T11:35:56.512Z,42.25
2018-05-29T11:36:56.595Z,41.96
2018-05-29T11:37:56.529Z,42.66
2018-05-29T11:38:56.544Z,41.68
2018-05-29T11:39:56.562Z,41.71
2018-05-29T11:40:56.566Z,41.16
2018-05-29T11:41:56.579Z,39.39
2018-05-29T11:42:56.586Z,39.31
2018-05-29T11:43:56.597Z,38.42
2018-05-29T11:44:56.610Z,38.31
2018-05-29T11:45:56.623Z,39.00
2018-05-29T11:46:56.627Z,38.29
2018-05-29T11:47:56.645Z,38.96
2018-05-29T11:48:56.648Z,40.01
2018-05-29T11:49:56.657Z,41.09
2018-05-29T11:50:56.669Z,40.01
2018-05-29T11:51:56.681Z,40.11
2018-05-29T11:52:56.696Z,40.51
2018-05-29T11:53:56.706Z,39.43
2018-05-29T11:54:56.770Z,40.95
2018-05-29T11:55:56.753Z,41.35
2018-05-29T11:56:56.733Z,41.74
2018-05-29T11:57:56.747Z,41.64
2018-05-29T11:58:56.759Z,41.62
2018-05-29T11:59:56.766Z,42.41
2018-05-29T12:00:56.780Z,42.21
2018-05-29T12:01:56.785Z,42.33
2018-05-29T12:02:56.791Z,42.35
2018-05-29T12:03:56.801Z,41.49
2018-05-29T12:04:56.810Z,40.21
2018-05-29T12:05:56.821Z,40.11
2018-05-29T12:06:56.834Z,41.17
2018-05-29T12:07:56.842Z,41.76
2018-05-29T12:08:56.848Z,41.88
2018-05-29T12:09:56.858Z,41.19
2018-05-29T12:10:56.894Z,41.51
2018-05-29T12:11:56.881Z,40.82
2018-05-29T12:12:56.893Z,41.31
2018-05-29T12:13:56.899Z,39.47
2018-05-29T12:14:56.911Z,39.74
2018-05-29T12:15:56.919Z,40.63
2018-05-29T12:16:57.002Z,41.00
2018-05-29T12:17:56.942Z,41.29
2018-05-29T12:18:56.956Z,41.27
2018-05-29T12:19:56.956Z,41.96
2018-05-29T12:20:56.968Z,42.74
2018-05-29T12:21:56.979Z,42.15
2018-05-29T12:22:56.983Z,42.25
2018-05-29T12:23:56.994Z,41.66
2018-05-29T12:24:57.004Z,41.56
2018-05-29T12:25:57.014Z,41.08
2018-05-29T12:26:57.025Z,42.05
2018-05-29T12:27:57.032Z,42.23
2018-05-29T12:28:57.042Z,42.41
2018-05-29T12:29:57.046Z,43.37
2018-05-29T12:30:57.054Z,43.54
2018-05-29T12:31:57.063Z,44.10
2018-05-29T12:32:57.079Z,45.08
2018-05-29T12:33:57.086Z,45.55
2018-05-29T12:34:57.091Z,45.76
2018-05-29T12:35:57.098Z,45.57
2018-05-29T12:36:57.105Z,45.67
2018-05-29T12:37:57.112Z,46.45
2018-05-29T12:38:57.124Z,44.59
2018-05-29T12:39:57.132Z,45.76
2018-05-29T12:40:57.141Z,45.76
2018-05-29T12:41:57.141Z,45.28
2018-05-29T12:42:57.155Z,45.18
2018-05-29T12:43:57.157Z,45.47
2018-05-29T12:44:57.165Z,45.65
2018-05-29T12:45:57.178Z,45.65
2018-05-29T12:46:57.177Z,45.94
2018-05-29T12:47:57.185Z,46.43
2018-05-29T12:48:57.199Z,46.70
2018-05-29T12:49:57.199Z,46.11
2018-05-29T12:50:57.212Z,47.09
2018-05-29T12:51:57.213Z,47.41
2018-05-29T12:52:57.238Z,47.50